Pagina principală
METAR-TAF:

METAR-TAF

Aeroporturi :

Dallas Executive Airport

Dallas, Texas, Statele Unite ale Americii

Latitudine: 32-40-33N, longitudine: 096-51-50W, elevație: 201 m

Observații meteo curente

Raportul a fost făcut în urmă cu 32 de minute, la 22:53 UTC
Vânt 8 kt de la Sud/Sud-est
Temperatură 34°C
Umiditate 47%
Presiune 1015 hPa
Vizibilitate: 16.1 km
Cer senin

METAR: KRBD 222253Z 16008KT 10SM CLR 34/21 A2996 RMK AO2 SLP136 T03390206

Ora: 18:25 (23:25 UTC)


TAF: lipsă

Observații și prognoze meteo pentru peste 4.000 de aeroporturi (rapoarte METAR și TAF).

Stațiile disponibile sunt reprezentate pe hartă prin puncte galbene și roșii.

Țineți indicatorul mouse-ului pe punctul dorit pentru a vedea denumirea stației.

Apoi, faceți clic pentru a vedea observațiile și prognozele meteorologice.

Pentru a schimba harta: Pentru mărire, faceți clic pe butoanele verzi cu cruce neagră; pentru micșorare, pe butonul verde cu o liniuță; pentru hărți învecinate, pe săgețile verzi.


METAR-TAF: